Time;durP1;ratioP1;P1;durP2;ratioP2;P2;SDS_P1;SDS_P2;PMS_P1;PMS_P2;Temp;Humidity;BMP_temperature;BMP_pressure;BME280_temperature;BME280_humidity;BME280_pressure;Samples;Min_cycle;Max_cycle;Signal;HPM_P1;HPM_P2
2022/10/26 00:01:09;;;;;;;24.90;15.40;;;12.60;99.90;;;;;;6280586;22;20168;-74
2022/10/26 00:03:37;;;;;;;21.60;14.70;;;12.70;99.90;;;;;;6280537;22;20183;-74
2022/10/26 00:06:07;;;;;;;22.90;15.20;;;12.80;99.90;;;;;;6280774;22;20247;-75
2022/10/26 00:08:34;;;;;;;26.23;14.67;;;12.60;99.90;;;;;;6280059;22;20172;-74
2022/10/26 00:11:02;;;;;;;26.37;15.30;;;12.70;99.90;;;;;;6307835;22;20497;-74
2022/10/26 00:13:28;;;;;;;24.70;14.10;;;12.70;99.90;;;;;;6307735;22;20296;-75
2022/10/26 00:15:55;;;;;;;25.77;14.23;;;12.80;99.90;;;;;;6307588;22;20169;-75
2022/10/26 00:18:23;;;;;;;23.23;14.57;;;12.80;99.90;;;;;;6307849;22;20240;-75
2022/10/26 00:20:50;;;;;;;24.23;14.50;;;12.80;99.90;;;;;;6306315;22;20164;-74
2022/10/26 00:23:17;;;;;;;25.17;15.07;;;12.80;99.90;;;;;;6254982;22;20599;-74
2022/10/26 00:25:44;;;;;;;26.07;15.50;;;12.80;99.90;;;;;;6280202;22;20165;-74
2022/10/26 00:28:11;;;;;;;26.77;15.27;;;12.70;99.90;;;;;;6280629;22;20540;-75
2022/10/26 00:30:39;;;;;;;22.33;14.50;;;12.80;99.90;;;;;;6280810;22;20613;-75
2022/10/26 00:33:08;;;;;;;26.90;15.50;;;12.80;99.90;;;;;;6307369;22;20192;-75
2022/10/26 00:35:35;;;;;;;26.37;15.27;;;12.70;99.90;;;;;;6307371;22;20176;-74
2022/10/26 00:38:11;;;;;;;27.00;14.70;;;12.80;99.90;;;;;;6280096;22;20204;-74
2022/10/26 00:40:38;;;;;;;24.60;15.83;;;12.90;99.90;;;;;;6280205;22;20161;-73
2022/10/26 00:43:28;;;;;;;26.33;16.17;;;13.00;99.90;;;;;;6280293;22;20175;-74
2022/10/26 00:45:57;;;;;;;28.27;16.10;;;12.90;99.90;;;;;;6275679;22;20233;-74
2022/10/26 00:48:27;;;;;;;27.53;16.00;;;13.00;99.90;;;;;;6280695;22;20184;-74
2022/10/26 00:50:57;;;;;;;25.23;15.90;;;12.90;99.90;;;;;;6280125;22;20178;-75
2022/10/26 00:53:25;;;;;;;22.33;15.77;;;13.00;99.90;;;;;;6279798;22;20541;-75
2022/10/26 00:55:53;;;;;;;29.67;16.30;;;13.00;99.90;;;;;;6280111;22;20165;-74
2022/10/26 00:58:21;;;;;;;24.27;15.97;;;13.00;99.90;;;;;;6280219;22;20208;-73
2022/10/26 01:00:50;;;;;;;28.93;15.37;;;13.00;99.90;;;;;;6280371;22;20179;-75
2022/10/26 01:03:17;;;;;;;27.30;15.77;;;13.00;99.90;;;;;;6306168;22;20256;-74
2022/10/26 01:05:46;;;;;;;31.63;17.13;;;12.80;99.90;;;;;;6279856;22;20259;-75
2022/10/26 01:08:15;;;;;;;31.03;18.33;;;12.80;99.90;;;;;;6305300;22;20188;-74
2022/10/26 01:10:43;;;;;;;27.60;17.97;;;12.90;99.90;;;;;;6280292;22;20191;-74
2022/10/26 01:13:11;;;;;;;28.70;17.73;;;12.80;99.90;;;;;;6280310;22;20197;-74
2022/10/26 01:15:56;;;;;;;29.70;18.43;;;12.90;99.90;;;;;;6279714;22;20165;-75
2022/10/26 01:18:35;;;;;;;29.40;17.87;;;13.00;99.90;;;;;;6280156;22;20169;-75
2022/10/26 01:21:40;;;;;;;33.93;19.50;;;12.90;99.90;;;;;;6280492;22;20177;-74
2022/10/26 01:24:21;;;;;;;37.87;19.93;;;12.90;99.90;;;;;;6279868;22;20172;-73
2022/10/26 01:27:06;;;;;;;30.93;19.47;;;12.90;99.90;;;;;;6279844;22;20169;-74
2022/10/26 01:29:39;;;;;;;31.17;19.30;;;12.80;99.90;;;;;;6279861;22;20168;-75
2022/10/26 01:32:13;;;;;;;31.73;19.47;;;12.90;99.90;;;;;;6307248;22;20192;-75
2022/10/26 01:35:01;;;;;;;31.77;18.43;;;12.90;99.90;;;;;;6279713;22;20172;-75
2022/10/26 01:37:33;;;;;;;32.30;18.93;;;12.90;99.90;;;;;;6279859;22;20173;-74
2022/10/26 01:40:17;;;;;;;32.13;18.73;;;12.90;99.90;;;;;;6306913;22;20515;-74
2022/10/26 01:42:50;;;;;;;31.50;18.83;;;12.80;99.90;;;;;;6307273;22;20195;-75
2022/10/26 01:45:18;;;;;;;33.20;19.83;;;12.80;99.90;;;;;;6279474;22;20246;-75
2022/10/26 01:47:47;;;;;;;30.93;19.03;;;12.90;99.90;;;;;;6280559;22;20192;-75
2022/10/26 01:50:15;;;;;;;32.73;18.37;;;12.80;99.90;;;;;;6279547;22;20200;-74
2022/10/26 01:52:42;;;;;;;28.53;17.97;;;12.80;99.90;;;;;;6279650;22;20230;-75
2022/10/26 01:55:42;;;;;;;27.60;17.33;;;12.90;99.90;;;;;;6279651;22;20274;-75
2022/10/26 01:58:33;;;;;;;27.63;17.90;;;12.90;99.90;;;;;;6276937;22;20173;-75
2022/10/26 02:01:17;;;;;;;27.13;17.33;;;12.90;99.90;;;;;;6279876;22;20165;-74
2022/10/26 02:04:15;;;;;;;28.97;17.47;;;12.90;99.90;;;;;;6305375;22;20226;-74
2022/10/26 02:07:02;;;;;;;29.50;16.70;;;12.90;99.90;;;;;;6307335;22;20169;-74
2022/10/26 02:09:59;;;;;;;25.77;16.63;;;12.90;99.90;;;;;;6279919;22;20184;-74
2022/10/26 02:12:47;;;;;;;25.87;16.07;;;12.90;99.90;;;;;;6280033;22;20210;-74
2022/10/26 02:15:24;;;;;;;23.93;16.07;;;12.90;99.90;;;;;;6279710;22;20176;-74
2022/10/26 02:18:02;;;;;;;25.30;16.50;;;12.90;99.90;;;;;;6279624;22;20261;-74
2022/10/26 02:20:45;;;;;;;30.77;16.83;;;12.80;99.90;;;;;;6279607;22;20199;-74
2022/10/26 02:23:13;;;;;;;28.63;16.17;;;12.70;99.90;;;;;;6254411;22;20153;-74
2022/10/26 02:25:47;;;;;;;29.00;16.97;;;12.70;99.90;;;;;;6280944;22;20172;-74
2022/10/26 02:28:20;;;;;;;24.97;15.20;;;12.70;99.90;;;;;;6281409;22;20193;-74
2022/10/26 02:30:49;;;;;;;26.70;15.43;;;12.60;99.90;;;;;;6281505;22;20169;-74
2022/10/26 02:33:18;;;;;;;26.17;15.90;;;12.60;99.90;;;;;;6281699;22;20199;-75
2022/10/26 02:35:49;;;;;;;24.93;15.60;;;12.60;99.90;;;;;;6281409;22;20202;-74
2022/10/26 02:38:17;;;;;;;28.57;16.50;;;12.60;99.90;;;;;;6308441;22;20197;-74
2022/10/26 02:40:47;;;;;;;24.87;15.83;;;12.60;99.90;;;;;;6281470;22;20175;-74
2022/10/26 02:43:20;;;;;;;27.90;16.50;;;12.50;99.90;;;;;;6281306;22;20605;-74
2022/10/26 02:45:59;;;;;;;28.67;16.70;;;12.60;99.90;;;;;;6281297;22;20161;-74
2022/10/26 02:48:26;;;;;;;30.03;16.47;;;12.60;99.90;;;;;;6281448;22;20199;-74
2022/10/26 02:51:11;;;;;;;32.50;17.27;;;12.40;99.90;;;;;;6281490;22;20176;-74
2022/10/26 02:53:50;;;;;;;34.40;17.40;;;12.50;99.90;;;;;;6281032;22;20189;-74
2022/10/26 02:56:28;;;;;;;29.80;17.13;;;12.50;99.90;;;;;;6281600;22;20169;-74
2022/10/26 02:58:59;;;;;;;30.80;17.33;;;12.40;99.90;;;;;;6307599;22;20174;-74
2022/10/26 03:01:27;;;;;;;30.60;17.30;;;12.40;99.90;;;;;;6281249;22;20165;-74
2022/10/26 03:03:58;;;;;;;31.23;17.43;;;12.50;99.90;;;;;;6281433;22;20200;-75
2022/10/26 03:06:26;;;;;;;29.33;17.10;;;12.50;99.90;;;;;;6308317;22;20168;-74
2022/10/26 03:08:53;;;;;;;32.63;17.33;;;12.50;99.90;;;;;;6280884;22;20264;-74
2022/10/26 03:11:20;;;;;;;31.73;17.67;;;12.50;99.90;;;;;;6306856;22;20169;-74
2022/10/26 03:13:47;;;;;;;33.23;17.93;;;12.50;99.90;;;;;;6280932;22;20216;-75
2022/10/26 03:16:14;;;;;;;31.80;17.57;;;12.50;99.90;;;;;;6281095;22;20157;-74
2022/10/26 03:18:41;;;;;;;30.13;17.50;;;12.50;99.90;;;;;;6308411;22;20248;-75
2022/10/26 03:21:08;;;;;;;28.50;17.33;;;12.50;99.90;;;;;;6280996;22;20157;-75
2022/10/26 03:23:35;;;;;;;30.03;17.23;;;12.50;99.90;;;;;;6255611;22;20487;-75
2022/10/26 03:26:02;;;;;;;33.37;18.00;;;12.40;99.90;;;;;;6281326;22;20173;-75
2022/10/26 03:28:29;;;;;;;33.63;19.53;;;12.50;99.90;;;;;;6280925;22;20161;-75
2022/10/26 03:30:56;;;;;;;34.00;18.93;;;12.50;99.90;;;;;;6308407;22;20184;-74
2022/10/26 03:33:23;;;;;;;33.63;19.13;;;12.50;99.90;;;;;;6280672;22;20219;-75
2022/10/26 03:35:55;;;;;;;34.93;19.47;;;12.50;99.90;;;;;;6280588;22;20173;-74
2022/10/26 03:38:22;;;;;;;34.20;19.77;;;12.50;99.90;;;;;;6307876;22;20218;-74
2022/10/26 03:40:49;;;;;;;37.30;19.80;;;12.40;99.90;;;;;;6280612;22;20184;-74
2022/10/26 03:43:16;;;;;;;36.60;19.80;;;12.30;99.90;;;;;;6280769;22;20187;-74
2022/10/26 03:45:43;;;;;;;36.80;19.50;;;12.30;99.90;;;;;;6280797;22;20187;-74
2022/10/26 03:48:10;;;;;;;34.50;19.33;;;12.40;99.90;;;;;;6280863;22;20220;-74
2022/10/26 03:50:37;;;;;;;36.80;19.50;;;12.30;99.90;;;;;;6280923;22;20173;-74
2022/10/26 03:53:04;;;;;;;34.70;18.67;;;12.30;99.90;;;;;;6280960;22;20165;-74
2022/10/26 03:55:31;;;;;;;33.67;17.60;;;12.20;99.90;;;;;;6280395;22;20567;-74
2022/10/26 03:57:58;;;;;;;32.77;18.33;;;12.30;99.90;;;;;;6308053;22;20483;-75
2022/10/26 04:00:25;;;;;;;34.87;19.23;;;12.20;99.90;;;;;;6280649;22;20179;-74
2022/10/26 04:02:56;;;;;;;34.63;18.00;;;12.20;99.90;;;;;;6308140;22;20192;-74
2022/10/26 04:05:24;;;;;;;31.57;17.67;;;12.10;99.90;;;;;;6307924;22;20168;-74
2022/10/26 04:07:56;;;;;;;36.03;19.10;;;12.20;99.90;;;;;;6280438;22;20259;-74
2022/10/26 04:10:24;;;;;;;34.93;18.87;;;12.30;99.90;;;;;;6280336;22;20204;-74
2022/10/26 04:12:52;;;;;;;32.20;17.93;;;12.30;99.90;;;;;;6280682;22;20622;-74
2022/10/26 04:15:19;;;;;;;33.43;18.10;;;12.30;99.90;;;;;;6280099;22;20661;-73
2022/10/26 04:17:47;;;;;;;32.03;18.60;;;12.40;99.90;;;;;;6307664;22;20625;-74
2022/10/26 04:20:14;;;;;;;33.37;18.00;;;12.30;99.90;;;;;;6280718;22;20651;-74
2022/10/26 04:22:41;;;;;;;31.70;18.60;;;12.30;99.90;;;;;;6280220;22;20169;-75
2022/10/26 04:25:10;;;;;;;33.10;17.90;;;12.30;99.90;;;;;;6280121;22;20181;-74
2022/10/26 04:27:37;;;;;;;32.10;17.77;;;12.40;99.90;;;;;;6280461;22;20169;-75
2022/10/26 04:30:07;;;;;;;31.63;18.47;;;12.30;99.90;;;;;;6280317;22;20169;-74
2022/10/26 04:32:33;;;;;;;33.20;17.90;;;12.30;99.90;;;;;;6280425;22;20244;-74
2022/10/26 04:35:00;;;;;;;27.63;17.03;;;12.40;99.90;;;;;;6305858;22;20192;-74
2022/10/26 04:37:27;;;;;;;29.83;17.73;;;12.40;99.90;;;;;;6280065;22;20214;-74
2022/10/26 04:39:54;;;;;;;31.00;17.43;;;12.40;99.90;;;;;;6280371;22;20292;-75
2022/10/26 04:42:21;;;;;;;30.10;17.73;;;12.40;99.90;;;;;;6280200;22;20211;-74
2022/10/26 04:44:48;;;;;;;32.97;17.77;;;12.20;99.90;;;;;;6280399;22;20171;-75
2022/10/26 04:47:15;;;;;;;33.67;17.20;;;12.30;99.90;;;;;;6279728;22;20168;-73
2022/10/26 04:49:42;;;;;;;33.10;17.57;;;12.20;99.90;;;;;;6280200;22;20482;-74
2022/10/26 04:52:09;;;;;;;30.67;18.50;;;12.20;99.90;;;;;;6280549;22;20652;-74
2022/10/26 04:54:36;;;;;;;36.20;19.57;;;12.20;99.90;;;;;;6307369;22;20191;-74
2022/10/26 04:57:03;;;;;;;40.13;20.57;;;12.30;99.90;;;;;;6279980;22;20673;-74
2022/10/26 04:59:30;;;;;;;36.57;19.53;;;12.10;99.90;;;;;;6280712;22;20169;-74
2022/10/26 05:01:57;;;;;;;36.50;19.60;;;12.10;99.90;;;;;;6307528;22;20499;-74
2022/10/26 05:04:24;;;;;;;39.97;21.40;;;12.10;99.90;;;;;;6279651;22;20191;-74
2022/10/26 05:06:52;;;;;;;38.37;20.37;;;12.10;99.90;;;;;;6279887;22;20214;-74
2022/10/26 05:09:19;;;;;;;43.47;21.13;;;12.10;99.90;;;;;;6279894;22;20189;-74
2022/10/26 05:11:46;;;;;;;37.73;19.63;;;11.90;99.90;;;;;;6279879;22;20179;-75
2022/10/26 05:14:13;;;;;;;38.63;19.20;;;11.90;99.90;;;;;;6254808;22;20189;-74
2022/10/26 05:16:40;;;;;;;39.30;20.83;;;11.90;99.90;;;;;;6279879;22;20466;-74
2022/10/26 05:19:08;;;;;;;37.70;20.00;;;12.00;99.90;;;;;;6279973;22;20165;-74
2022/10/26 05:21:35;;;;;;;39.93;21.00;;;12.10;99.90;;;;;;6307483;22;20245;-73
2022/10/26 05:24:02;;;;;;;40.63;21.07;;;12.00;99.90;;;;;;6307435;22;20247;-73
2022/10/26 05:26:33;;;;;;;41.57;21.03;;;11.80;99.90;;;;;;6279971;22;20168;-74
2022/10/26 05:29:00;;;;;;;45.33;21.43;;;11.80;99.90;;;;;;6307954;22;20176;-73
2022/10/26 05:31:27;;;;;;;44.67;20.33;;;11.80;99.90;;;;;;6279183;22;20203;-74
2022/10/26 05:33:54;;;;;;;43.07;21.50;;;11.80;99.90;;;;;;6306691;22;20517;-73
2022/10/26 05:36:20;;;;;;;42.80;22.77;;;11.80;99.90;;;;;;6307202;22;20218;-74
2022/10/26 05:38:48;;;;;;;47.10;22.63;;;11.70;99.90;;;;;;6279374;22;20201;-75
2022/10/26 05:41:14;;;;;;;46.07;23.20;;;11.60;99.90;;;;;;6254670;22;20168;-73
2022/10/26 05:43:41;;;;;;;45.83;22.90;;;11.60;99.90;;;;;;6279844;22;20168;-74
2022/10/26 05:46:08;;;;;;;48.80;23.10;;;11.70;99.90;;;;;;6280124;22;20177;-74
2022/10/26 05:48:35;;;;;;;44.77;21.27;;;11.60;99.90;;;;;;6306813;22;20642;-72
2022/10/26 05:51:02;;;;;;;40.73;20.63;;;11.60;99.90;;;;;;6305941;22;20173;-73
2022/10/26 05:53:29;;;;;;;42.23;20.80;;;11.60;99.90;;;;;;6280361;22;20169;-74
2022/10/26 05:55:56;;;;;;;40.70;20.60;;;11.60;99.90;;;;;;6306776;22;20169;-75
2022/10/26 05:58:24;;;;;;;40.53;20.27;;;11.70;99.90;;;;;;6280478;22;20184;-75
2022/10/26 06:01:15;;;;;;;37.03;18.17;;;11.70;99.90;;;;;;6281944;22;20218;-74
2022/10/26 06:03:50;;;;;;;35.53;18.63;;;11.70;99.90;;;;;;6281591;22;20161;-74
2022/10/26 06:06:17;;;;;;;37.00;19.10;;;11.70;99.90;;;;;;6281680;22;20172;-73
2022/10/26 06:08:44;;;;;;;34.77;18.00;;;11.70;99.90;;;;;;6281918;22;20173;-74
2022/10/26 06:11:11;;;;;;;44.53;22.37;;;11.70;99.90;;;;;;6281788;22;20203;-73
2022/10/26 06:13:38;;;;;;;43.07;21.80;;;11.70;99.90;;;;;;6281865;22;20169;-72
2022/10/26 06:16:17;;;;;;;45.27;22.27;;;11.80;99.90;;;;;;6308973;22;20222;-73
2022/10/26 06:19:05;;;;;;;42.37;20.97;;;11.70;99.90;;;;;;6281692;22;20483;-73
2022/10/26 06:21:39;;;;;;;43.17;20.30;;;11.80;99.90;;;;;;6281864;22;20161;-72
2022/10/26 06:24:43;;;;;;;41.23;19.30;;;11.80;99.90;;;;;;6308601;22;20157;-72
2022/10/26 06:27:37;;;;;;;36.67;17.73;;;11.80;99.90;;;;;;6281380;22;20534;-72
2022/10/26 06:30:09;;;;;;;32.07;16.83;;;11.80;99.90;;;;;;6281517;22;20165;-72
2022/10/26 06:32:36;;;;;;;32.37;15.47;;;11.90;99.90;;;;;;6281461;22;20169;-72
2022/10/26 06:35:30;;;;;;;28.77;14.50;;;11.90;99.90;;;;;;6281234;22;20192;-72
2022/10/26 06:38:01;;;;;;;27.23;13.70;;;11.90;99.90;;;;;;6281436;22;20177;-73
2022/10/26 06:40:32;;;;;;;27.03;14.03;;;11.90;99.90;;;;;;6307308;22;20474;-72
2022/10/26 06:42:59;;;;;;;28.20;14.00;;;11.90;99.90;;;;;;6281037;22;20255;-72
2022/10/26 06:45:26;;;;;;;25.63;13.93;;;11.90;99.90;;;;;;6280457;22;20594;-72
2022/10/26 06:48:05;;;;;;;26.50;13.03;;;12.00;99.90;;;;;;6281426;22;20506;-72
2022/10/26 06:50:39;;;;;;;23.70;13.50;;;12.00;99.90;;;;;;6281131;22;20208;-72
2022/10/26 06:53:05;;;;;;;29.40;14.80;;;12.00;99.90;;;;;;6308635;22;20169;-72
2022/10/26 06:55:42;;;;;;;31.73;16.00;;;12.00;99.90;;;;;;6281372;22;20185;-71
2022/10/26 06:58:20;;;;;;;32.63;16.60;;;12.00;99.90;;;;;;6280861;22;20164;-71
2022/10/26 07:00:50;;;;;;;33.00;16.83;;;12.00;99.90;;;;;;6281593;22;20168;-72
2022/10/26 07:03:17;;;;;;;35.20;17.03;;;12.00;99.90;;;;;;6281034;22;20237;-72
2022/10/26 07:05:44;;;;;;;34.67;17.10;;;12.00;99.90;;;;;;6281054;22;20595;-71
2022/10/26 07:08:12;;;;;;;32.97;15.73;;;12.10;99.90;;;;;;6281170;22;20646;-71
2022/10/26 07:10:41;;;;;;;34.23;16.07;;;12.20;99.90;;;;;;6280919;22;20157;-72
2022/10/26 07:13:09;;;;;;;32.50;16.33;;;12.20;99.90;;;;;;6308292;22;20173;-72
2022/10/26 07:15:38;;;;;;;32.90;15.63;;;12.20;99.90;;;;;;6281270;22;20189;-71
2022/10/26 07:18:06;;;;;;;31.17;15.27;;;12.20;99.90;;;;;;6308670;22;20161;-72
2022/10/26 07:20:38;;;;;;;30.33;15.27;;;12.10;99.90;;;;;;6308438;22;20168;-72
2022/10/26 07:23:07;;;;;;;30.67;14.53;;;12.20;99.90;;;;;;6308353;22;20176;-71
2022/10/26 07:25:37;;;;;;;30.70;14.83;;;12.20;99.90;;;;;;6280825;22;20169;-72
2022/10/26 07:28:05;;;;;;;28.80;14.07;;;12.20;99.90;;;;;;6255785;22;20219;-72
2022/10/26 07:30:32;;;;;;;28.93;14.60;;;12.20;99.90;;;;;;6280844;22;20169;-73
2022/10/26 07:33:12;;;;;;;29.63;15.10;;;12.30;99.90;;;;;;6280976;22;20200;-71
2022/10/26 07:35:39;;;;;;;27.93;14.60;;;12.40;99.90;;;;;;6280850;22;20188;-72
2022/10/26 07:38:06;;;;;;;26.73;13.90;;;12.40;99.90;;;;;;6307895;22;20184;-72
2022/10/26 07:40:35;;;;;;;24.77;12.73;;;12.40;99.90;;;;;;6280961;22;20173;-73
2022/10/26 07:43:01;;;;;;;25.60;12.77;;;12.50;99.90;;;;;;6280904;22;20169;-73
2022/10/26 07:45:29;;;;;;;26.30;12.10;;;12.50;99.90;;;;;;6280969;22;20169;-73
2022/10/26 07:47:56;;;;;;;25.13;13.03;;;12.40;99.90;;;;;;6280778;22;20161;-72
2022/10/26 07:50:23;;;;;;;26.10;12.97;;;12.40;99.90;;;;;;6280691;22;20196;-74
2022/10/26 07:52:50;;;;;;;24.27;11.83;;;12.40;99.90;;;;;;6280762;22;20641;-73
2022/10/26 07:55:19;;;;;;;20.33;12.13;;;12.50;99.90;;;;;;6280421;22;20603;-73
2022/10/26 07:57:45;;;;;;;23.50;12.20;;;12.50;99.90;;;;;;6307918;22;20189;-74
2022/10/26 08:00:20;;;;;;;21.90;11.90;;;12.40;99.90;;;;;;6281286;22;20169;-74
2022/10/26 08:02:47;;;;;;;21.20;12.33;;;12.30;99.90;;;;;;6280519;22;20169;-74
2022/10/26 08:05:14;;;;;;;23.07;11.37;;;12.30;99.90;;;;;;6280745;22;20183;-73
2022/10/26 08:07:43;;;;;;;22.97;12.60;;;12.20;99.90;;;;;;6280044;22;20169;-72
2022/10/26 08:10:11;;;;;;;23.47;12.37;;;12.20;99.90;;;;;;6280324;22;20173;-72
2022/10/26 08:12:38;;;;;;;21.00;11.30;;;12.30;99.90;;;;;;6280279;22;20177;-72
2022/10/26 08:15:06;;;;;;;25.27;12.07;;;12.20;99.90;;;;;;6280361;22;20246;-72
2022/10/26 08:17:33;;;;;;;24.23;12.60;;;12.10;99.90;;;;;;6280332;22;20169;-71
2022/10/26 08:20:00;;;;;;;24.03;12.60;;;12.10;99.90;;;;;;6280689;22;20175;-71
2022/10/26 08:22:30;;;;;;;24.93;12.60;;;12.20;99.90;;;;;;6279673;22;20165;-74
2022/10/26 08:24:57;;;;;;;22.73;12.40;;;12.30;99.90;;;;;;6307730;22;20176;-72
2022/10/26 08:27:24;;;;;;;24.67;13.40;;;12.30;99.90;;;;;;6279976;22;20179;-73
2022/10/26 08:29:51;;;;;;;24.93;12.80;;;12.30;99.90;;;;;;6279975;22;20173;-72
2022/10/26 08:32:18;;;;;;;25.13;13.07;;;12.40;99.90;;;;;;6280478;22;20210;-70
2022/10/26 08:34:45;;;;;;;23.50;12.30;;;12.40;99.90;;;;;;6307259;22;20181;-71
2022/10/26 08:37:12;;;;;;;25.30;12.53;;;12.50;99.90;;;;;;6280453;22;20168;-71
2022/10/26 08:39:39;;;;;;;25.07;12.83;;;12.50;99.90;;;;;;6280180;22;20197;-71
2022/10/26 08:42:20;;;;;;;27.40;13.13;;;12.50;99.90;;;;;;6280438;22;20161;-70
2022/10/26 08:44:57;;;;;;;29.23;14.00;;;12.50;99.90;;;;;;6280080;22;20169;-70
2022/10/26 08:47:45;;;;;;;26.60;14.10;;;12.50;99.90;;;;;;6303922;22;20200;-71
2022/10/26 08:50:24;;;;;;;27.03;14.60;;;12.70;99.90;;;;;;6279358;22;20228;-71
2022/10/26 08:53:28;;;;;;;27.87;14.73;;;12.60;99.90;;;;;;6280321;22;20161;-71
2022/10/26 08:56:10;;;;;;;30.40;15.43;;;12.50;99.90;;;;;;6242470;23;20197;-71
2022/10/26 08:58:42;;;;;;;29.20;14.37;;;12.50;99.90;;;;;;6242800;23;20171;-70
2022/10/26 09:01:09;;;;;;;28.03;13.57;;;12.50;99.90;;;;;;6243274;23;20304;-71
2022/10/26 09:03:36;;;;;;;27.40;14.00;;;12.60;99.90;;;;;;6243020;23;20579;-69
2022/10/26 09:06:06;;;;;;;26.47;13.83;;;12.50;99.90;;;;;;6243045;23;20556;-70
2022/10/26 09:08:36;;;;;;;28.10;13.93;;;12.60;99.90;;;;;;6243095;23;20181;-70
2022/10/26 09:11:28;;;;;;;23.87;13.60;;;12.70;99.90;;;;;;6242824;23;20232;-71
2022/10/26 09:14:07;;;;;;;24.10;12.93;;;12.80;99.90;;;;;;6243292;23;20250;-70
2022/10/26 09:17:07;;;;;;;23.80;12.60;;;13.00;99.90;;;;;;6242904;23;20190;-70
2022/10/26 09:19:41;;;;;;;26.03;13.03;;;13.10;99.90;;;;;;6187533;23;20175;-72
2022/10/26 09:22:23;;;;;;;25.03;12.93;;;13.20;99.90;;;;;;6187628;23;20257;-70
2022/10/26 09:24:55;;;;;;;27.50;12.97;;;13.30;99.90;;;;;;6187557;23;20183;-71
2022/10/26 09:27:50;;;;;;;27.10;13.97;;;13.30;99.90;;;;;;6187448;23;20616;-72
2022/10/26 09:30:20;;;;;;;24.00;12.43;;;13.40;99.90;;;;;;6186490;23;20202;-73
2022/10/26 09:32:51;;;;;;;22.67;12.80;;;13.40;99.90;;;;;;6217675;23;20178;-71
2022/10/26 09:35:52;;;;;;;20.50;11.33;;;13.50;99.90;;;;;;6219470;23;20206;-70
2022/10/26 09:38:44;;;;;;;17.50;9.33;;;13.40;99.90;;;;;;6184390;23;20205;-71
2022/10/26 09:41:35;;;;;;;18.10;9.93;;;13.40;99.90;;;;;;6096055;23;20182;-70
2022/10/26 09:44:10;;;;;;;17.00;9.57;;;13.20;99.90;;;;;;6096137;23;20182;-69
2022/10/26 09:46:51;;;;;;;17.67;9.07;;;13.10;99.90;;;;;;6071947;23;20224;-69
2022/10/26 09:49:22;;;;;;;20.30;10.43;;;13.20;99.90;;;;;;6071848;23;20639;-72
2022/10/26 09:51:49;;;;;;;16.80;10.00;;;13.20;99.90;;;;;;6095522;23;20193;-69
2022/10/26 09:54:20;;;;;;;17.20;9.83;;;13.30;99.90;;;;;;6095706;23;20550;-70
2022/10/26 09:56:52;;;;;;;16.97;8.60;;;13.40;99.90;;;;;;6095486;23;20201;-72
2022/10/26 09:59:22;;;;;;;14.57;8.70;;;13.40;99.90;;;;;;6071597;23;20177;-74
2022/10/26 10:01:50;;;;;;;14.93;8.10;;;13.70;99.90;;;;;;6095826;23;20248;-72
2022/10/26 10:04:24;;;;;;;15.03;8.77;;;13.70;99.90;;;;;;6071688;23;20170;-72
2022/10/26 10:07:00;;;;;;;15.37;9.00;;;13.80;99.90;;;;;;6071847;23;20236;-73
2022/10/26 10:09:27;;;;;;;15.23;9.37;;;14.00;99.90;;;;;;6095859;23;20178;-72
2022/10/26 10:11:57;;;;;;;18.20;9.80;;;14.00;99.90;;;;;;6071780;23;20177;-71
2022/10/26 10:14:39;;;;;;;16.40;10.00;;;14.00;99.90;;;;;;6131138;23;20602;-71
2022/10/26 10:17:19;;;;;;;16.73;10.57;;;14.00;99.90;;;;;;6159558;23;20490;-71
2022/10/26 10:19:46;;;;;;;16.60;9.90;;;14.00;99.90;;;;;;6281894;22;20168;-71
2022/10/26 10:22:22;;;;;;;20.33;10.60;;;14.00;99.90;;;;;;6281913;22;20161;-71
2022/10/26 10:24:57;;;;;;;18.03;10.03;;;13.90;99.90;;;;;;6281439;22;20169;-72
2022/10/26 10:27:25;;;;;;;19.13;10.33;;;14.00;99.90;;;;;;6281693;22;20172;-72
2022/10/26 10:29:57;;;;;;;17.13;10.23;;;13.90;99.90;;;;;;6281203;22;20174;-72
2022/10/26 10:32:31;;;;;;;21.47;10.60;;;13.90;99.90;;;;;;6281631;22;20160;-73
2022/10/26 10:35:28;;;;;;;19.50;9.80;;;14.00;99.90;;;;;;6281324;22;20581;-74
2022/10/26 10:37:55;;;;;;;19.97;9.90;;;13.90;99.90;;;;;;6281585;22;20506;-72
2022/10/26 10:40:30;;;;;;;20.20;10.53;;;14.00;99.90;;;;;;6281638;22;20161;-72
2022/10/26 10:43:12;;;;;;;17.70;10.53;;;14.10;99.90;;;;;;6308598;22;20499;-72
2022/10/26 10:45:40;;;;;;;19.03;10.50;;;14.00;99.90;;;;;;6280439;22;20594;-71
2022/10/26 10:48:17;;;;;;;21.30;11.27;;;13.90;99.90;;;;;;6281159;22;20165;-73
2022/10/26 10:50:54;;;;;;;21.73;11.37;;;13.80;99.90;;;;;;6308409;22;20163;-75
2022/10/26 10:53:35;;;;;;;20.10;10.70;;;13.90;99.90;;;;;;6281259;22;20188;-72
2022/10/26 10:56:39;;;;;;;22.77;11.00;;;14.00;99.90;;;;;;6280866;22;20188;-71
2022/10/26 10:59:29;;;;;;;19.97;10.83;;;14.00;99.90;;;;;;6308414;22;20164;-73
2022/10/26 11:01:59;;;;;;;20.00;11.37;;;14.10;99.90;;;;;;6308533;22;20165;-71
2022/10/26 11:05:03;;;;;;;20.70;10.97;;;14.00;99.90;;;;;;6308070;22;20161;-72
2022/10/26 11:07:35;;;;;;;21.13;11.00;;;14.10;99.90;;;;;;6281284;22;20616;-72
2022/10/26 11:10:03;;;;;;;27.60;11.13;;;14.10;99.90;;;;;;6281561;22;20180;-72
2022/10/26 11:12:37;;;;;;;20.40;11.17;;;14.00;99.90;;;;;;6281369;22;20215;-72
2022/10/26 11:15:13;;;;;;;21.97;11.03;;;14.20;99.90;;;;;;6306662;22;20194;-70
2022/10/26 11:17:51;;;;;;;21.13;11.33;;;14.30;99.90;;;;;;6308475;22;20590;-72
2022/10/26 11:20:23;;;;;;;22.30;11.57;;;14.40;99.90;;;;;;6281008;22;20188;-73
2022/10/26 11:22:59;;;;;;;22.73;11.07;;;14.40;99.90;;;;;;6280876;22;20543;-72
2022/10/26 11:25:35;;;;;;;20.17;11.57;;;14.50;99.90;;;;;;6281096;22;20251;-73
2022/10/26 11:28:12;;;;;;;19.03;10.77;;;14.60;99.90;;;;;;6308692;22;20231;-72
2022/10/26 11:30:50;;;;;;;21.77;11.03;;;14.70;99.90;;;;;;6280997;22;20172;-74
2022/10/26 11:33:43;;;;;;;22.07;10.77;;;14.70;99.90;;;;;;6280773;22;20168;-74
2022/10/26 11:36:17;;;;;;;18.60;10.27;;;14.80;99.90;;;;;;6218477;23;20575;-73
2022/10/26 11:39:12;;;;;;;19.23;10.67;;;14.90;99.90;;;;;;6219260;23;20197;-74
2022/10/26 11:41:41;;;;;;;22.83;11.63;;;14.80;99.90;;;;;;6244360;23;20666;-73
2022/10/26 11:44:14;;;;;;;18.93;10.50;;;14.90;99.90;;;;;;6244086;23;20549;-73
2022/10/26 11:46:48;;;;;;;17.60;9.83;;;15.10;99.90;;;;;;6218504;23;20185;-73
2022/10/26 11:49:41;;;;;;;18.00;9.53;;;15.50;99.90;;;;;;6218362;23;20243;-72
2022/10/26 11:52:38;;;;;;;17.27;10.00;;;15.60;99.90;;;;;;6242933;22;20640;-73
2022/10/26 11:55:09;;;;;;;19.97;10.53;;;15.60;99.90;;;;;;6243482;23;20579;-74
2022/10/26 11:57:37;;;;;;;18.10;9.73;;;15.60;99.90;;;;;;6218571;23;20170;-73
2022/10/26 12:00:13;;;;;;;15.27;9.13;;;15.90;99.90;;;;;;6243652;23;20170;-73
2022/10/26 12:02:41;;;;;;;17.40;8.87;;;16.30;99.90;;;;;;6218591;23;20589;-74
2022/10/26 12:05:23;;;;;;;17.50;9.17;;;16.60;99.90;;;;;;6243490;23;20264;-73
2022/10/26 12:07:55;;;;;;;18.47;9.87;;;16.60;99.90;;;;;;6243768;23;20173;-74
2022/10/26 12:10:33;;;;;;;16.77;9.43;;;16.60;99.90;;;;;;6243282;23;20209;-72
2022/10/26 12:13:12;;;;;;;17.33;9.40;;;16.50;99.90;;;;;;6251712;22;20670;-73
2022/10/26 12:15:53;;;;;;;19.37;10.30;;;16.30;99.90;;;;;;6246284;22;20381;-72
2022/10/26 12:18:38;;;;;;;18.97;9.77;;;16.20;99.90;;;;;;6246094;22;20170;-72
2022/10/26 12:21:28;;;;;;;17.90;10.00;;;16.10;99.90;;;;;;6219788;23;20246;-72
2022/10/26 12:24:01;;;;;;;23.57;10.10;;;15.40;99.90;;;;;;6244474;23;20271;-73
2022/10/26 12:26:27;;;;;;;17.87;9.33;;;15.50;99.90;;;;;;6244208;23;20166;-73
2022/10/26 12:29:00;;;;;;;18.20;10.70;;;15.70;99.90;;;;;;6270562;22;20202;-72
2022/10/26 12:31:36;;;;;;;19.90;11.23;;;15.60;99.90;;;;;;6239754;23;20167;-72
2022/10/26 12:34:04;;;;;;;19.73;10.50;;;15.30;99.90;;;;;;6244060;23;20184;-75
2022/10/26 12:36:47;;;;;;;20.00;10.63;;;15.20;99.90;;;;;;6245333;23;20194;-74
2022/10/26 12:39:39;;;;;;;21.37;10.93;;;15.60;99.90;;;;;;6264294;22;20201;-73
2022/10/26 12:42:09;;;;;;;19.50;10.40;;;15.60;99.90;;;;;;6272141;22;20176;-75
2022/10/26 12:44:58;;;;;;;19.40;11.07;;;15.70;99.90;;;;;;6275747;22;20503;-72
2022/10/26 12:47:31;;;;;;;21.83;10.97;;;15.70;99.90;;;;;;6276297;22;20154;-72
2022/10/26 12:50:07;;;;;;;22.00;9.97;;;15.60;99.90;;;;;;6274807;22;20169;-73
2022/10/26 12:52:44;;;;;;;20.40;10.67;;;15.60;99.90;;;;;;6274598;22;20276;-72
2022/10/26 12:55:10;;;;;;;18.90;10.83;;;15.60;99.90;;;;;;6274979;22;20226;-73
2022/10/26 12:57:54;;;;;;;20.67;10.27;;;15.50;99.90;;;;;;6274890;22;20211;-73